Main page
METAR-TAF:

METAR-TAF

Airports :

Gatwick Airport

London-Gatwick, England

latitude: 51-09N, longitude: 000-11W, elevation: 62 m

Current weather observation

The report was made 28 minutes ago, at 07:20 UTC
Wind 6 kt from the Southwest
Temperature 16°C
Humidity 88%
Pressure 1003 hPa
Visibility 10 km or more
Few clouds at a height of 3000 ft

METAR: EGKK 180720Z 22006KT 9999 FEW030 16/14 Q1003

Time: 08:48 (07:48 UTC)

Forecast

The report was made 2 hours and 48 minutes ago, at 05:00 UTC
Forecast valid from 18 at 06 UTC to 19 at 12 UTC
Wind 8 kt from the Southwest
Visibility 10 km or more
Scattered clouds at a height of 3000 ft
Probability 30% :
Temporary
from 18 at 09 UTC to 18 at 18 UTC
Wind 15 kt from the West/Southwest with gusts up to 25 kt
Visibility: 7000 m
rain showers
Probability 30% :
Temporary
from 19 at 10 UTC to 19 at 12 UTC
Visibility: 7000 m
rain showers

TAF: EGKK 180500Z 1806/1912 23008KT 9999 SCT030 PROB30 TEMPO 1809/1818 25015G25KT 7000 SHRA PROB30 TEMPO 1910/1912 7000 SHRA

Weather observations and forecasts of more than 4000 airports (METAR and TAF reports).

The available stations are represented by yellow and red dots on the map.

Hover mouse over dot to see the name of the station.

Then click to see weather observations and forecasts.

To change the map : click on the green buttons with a black cross to zoom in, on the green button with a dash to zoom out, or on the green arrows for adjacent maps.


METAR-TAF: